Time;durP1;ratioP1;P1;durP2;ratioP2;P2;SDS_P1;SDS_P2;PMS_P1;PMS_P2;Temp;Humidity;BMP_temperature;BMP_pressure;BME280_temperature;BME280_humidity;BME280_pressure;Samples;Min_cycle;Max_cycle;Signal;HPM_P1;HPM_P2
2022/12/17 13:07:23;;;;;;;63.63;29.00;;;0.00;99.90;;;;;;5096600;28;20044;-70
2022/12/17 13:09:52;;;;;;;68.25;30.77;;;0.30;99.90;;;;;;5096728;28;20032;-69
2022/12/17 13:12:39;;;;;;;74.45;31.58;;;0.50;99.90;;;;;;5100636;28;20451;-70
2022/12/17 13:15:05;;;;;;;63.95;29.23;;;0.40;99.90;;;;;;5099993;28;20020;-71
2022/12/17 13:17:38;;;;;;;65.05;30.30;;;0.20;99.90;;;;;;5100020;28;20020;-73
2022/12/17 13:20:25;;;;;;;61.30;29.80;;;0.20;99.90;;;;;;5100807;28;20096;-70
2022/12/17 13:23:03;;;;;;;70.63;32.00;;;0.10;99.90;;;;;;5100802;28;20063;-70
2022/12/17 13:25:29;;;;;;;66.70;30.90;;;0.20;99.90;;;;;;5100990;28;20070;-72
2022/12/17 13:27:55;;;;;;;71.47;30.83;;;0.10;99.90;;;;;;5082920;28;20059;-70
2022/12/17 13:30:34;;;;;;;63.47;29.88;;;0.10;99.90;;;;;;5099828;28;20355;-74
2022/12/17 13:33:30;;;;;;;76.85;32.95;;;-0.20;99.90;;;;;;5100635;28;20077;-73
2022/12/17 13:36:31;;;;;;;72.07;30.88;;;-0.40;99.90;;;;;;5099712;28;20025;-70
2022/12/17 13:39:18;;;;;;;71.93;31.33;;;-0.50;99.90;;;;;;5100404;28;20414;-72
2022/12/17 13:41:43;;;;;;;70.18;31.05;;;-0.30;99.90;;;;;;5099660;28;20028;-69
2022/12/17 13:44:30;;;;;;;76.03;32.63;;;-0.20;99.90;;;;;;5099428;28;20050;-71
2022/12/17 13:46:56;;;;;;;76.32;33.30;;;-0.10;99.90;;;;;;5100436;28;20050;-70
2022/12/17 13:49:24;;;;;;;71.93;31.63;;;0.10;99.90;;;;;;5082472;28;20032;-71
2022/12/17 13:52:26;;;;;;;73.20;33.00;;;0.40;99.90;;;;;;5100147;28;20024;-71
2022/12/17 13:54:52;;;;;;;74.68;34.83;;;0.90;99.90;;;;;;5099326;28;20039;-73
2022/12/17 13:57:22;;;;;;;72.78;33.00;;;0.90;99.90;;;;;;5082288;28;20028;-70
2022/12/17 13:59:53;;;;;;;71.38;32.85;;;0.60;99.90;;;;;;5099127;28;20073;-72
2022/12/17 14:02:24;;;;;;;69.15;33.20;;;0.30;99.90;;;;;;5099973;28;20098;-67
2022/12/17 14:04:52;;;;;;;54.50;25.42;;;0.40;99.90;;;;;;5099336;28;20020;-69
2022/12/17 14:07:19;;;;;;;69.32;32.30;;;0.30;99.90;;;;;;5098953;28;20404;-70
2022/12/17 14:09:45;;;;;;;72.90;31.77;;;0.30;99.90;;;;;;5099735;28;20031;-66
2022/12/17 14:12:23;;;;;;;74.57;33.38;;;-0.10;99.90;;;;;;5099543;28;20024;-68
2022/12/17 14:14:56;;;;;;;81.00;33.92;;;0.00;99.90;;;;;;5099749;28;20024;-67
2022/12/17 14:17:24;;;;;;;73.28;33.78;;;0.10;99.90;;;;;;5099640;28;20043;-67
2022/12/17 14:20:12;;;;;;;74.75;33.45;;;0.40;99.90;;;;;;5098988;28;20027;-69
2022/12/17 14:22:42;;;;;;;69.00;32.40;;;0.50;99.90;;;;;;5098203;28;20039;-67
2022/12/17 14:25:22;;;;;;;70.38;33.58;;;0.50;99.90;;;;;;5082072;28;20017;-68
2022/12/17 14:28:00;;;;;;;75.15;33.90;;;0.50;99.90;;;;;;5098633;28;20055;-69
2022/12/17 14:30:36;;;;;;;72.45;32.63;;;0.70;99.90;;;;;;5099326;28;20046;-68
2022/12/17 14:33:03;;;;;;;71.10;33.10;;;0.50;99.90;;;;;;5081847;28;20020;-68
2022/12/17 14:35:34;;;;;;;70.63;34.05;;;0.40;99.90;;;;;;5098530;28;20054;-68
2022/12/17 14:38:00;;;;;;;78.00;32.97;;;0.40;99.90;;;;;;5099305;28;20046;-69
2022/12/17 14:40:26;;;;;;;71.80;34.08;;;0.30;99.90;;;;;;5099233;28;20059;-68
2022/12/17 14:42:58;;;;;;;76.38;33.30;;;0.30;99.90;;;;;;5098779;28;20419;-69
2022/12/17 14:45:26;;;;;;;54.90;25.60;;;0.40;99.90;;;;;;5099327;28;20028;-67
2022/12/17 14:48:00;;;;;;;75.60;33.67;;;0.40;99.90;;;;;;5098277;28;20028;-69
2022/12/17 14:50:36;;;;;;;73.30;31.58;;;0.50;99.90;;;;;;5099408;28;20040;-70
2022/12/17 14:53:22;;;;;;;75.28;33.50;;;0.40;99.90;;;;;;5098909;28;20020;-67
2022/12/17 14:55:59;;;;;;;71.03;32.35;;;0.20;99.90;;;;;;5098903;28;20035;-69
2022/12/17 14:58:26;;;;;;;78.72;34.28;;;0.20;99.90;;;;;;5081475;28;20043;-69
2022/12/17 15:00:59;;;;;;;79.03;33.47;;;0.30;99.90;;;;;;5098223;28;20068;-68
2022/12/17 15:03:28;;;;;;;78.97;33.08;;;0.20;99.90;;;;;;5098697;28;20035;-70
2022/12/17 15:06:01;;;;;;;77.78;33.33;;;0.20;99.90;;;;;;5097944;28;20043;-69
2022/12/17 15:08:32;;;;;;;82.57;32.78;;;0.30;99.90;;;;;;5098551;28;20062;-69
2022/12/17 15:10:57;;;;;;;74.30;32.53;;;0.10;99.90;;;;;;5098637;28;20032;-69
2022/12/17 15:13:23;;;;;;;66.68;30.15;;;0.00;99.90;;;;;;5098551;28;20028;-70
2022/12/17 15:15:49;;;;;;;76.97;31.65;;;0.00;99.90;;;;;;5097817;28;20040;-69
2022/12/17 15:18:15;;;;;;;73.25;31.20;;;-0.10;99.90;;;;;;5097765;28;20351;-68
2022/12/17 15:20:41;;;;;;;72.57;32.42;;;-0.10;99.90;;;;;;5081315;28;20310;-68
2022/12/17 15:23:19;;;;;;;76.90;33.28;;;-0.20;99.90;;;;;;5097612;28;20032;-69
2022/12/17 15:25:47;;;;;;;76.28;32.83;;;-0.20;99.90;;;;;;5098412;28;20088;-69
2022/12/17 15:28:13;;;;;;;69.25;31.75;;;-0.10;99.90;;;;;;5097396;28;20032;-68
2022/12/17 15:30:39;;;;;;;67.03;30.25;;;-0.20;99.90;;;;;;5098172;28;20063;-68
2022/12/17 15:33:07;;;;;;;68.57;29.48;;;-0.20;99.90;;;;;;5080200;28;20066;-69
2022/12/17 15:35:33;;;;;;;71.65;31.63;;;-0.40;99.90;;;;;;5098215;28;20036;-70
2022/12/17 15:37:59;;;;;;;67.90;30.48;;;-0.30;99.90;;;;;;5097490;28;20229;-68
2022/12/17 15:40:25;;;;;;;70.60;31.15;;;-0.30;99.90;;;;;;5098028;28;20307;-69
2022/12/17 15:45:35;;;;;;;68.35;30.05;;;-0.20;99.90;;;;;;5097927;28;20032;-70
2022/12/17 15:48:01;;;;;;;67.75;31.00;;;-0.20;99.90;;;;;;5097507;28;20024;-70
2022/12/17 15:50:27;;;;;;;67.13;31.40;;;-0.30;99.90;;;;;;5080308;28;20047;-69
2022/12/17 15:52:53;;;;;;;77.13;29.60;;;-0.30;99.90;;;;;;5080295;28;20044;-69
2022/12/17 15:55:19;;;;;;;79.40;31.50;;;-0.50;99.90;;;;;;5097772;28;20077;-69
2022/12/17 15:57:44;;;;;;;76.68;30.92;;;-0.50;99.90;;;;;;5097117;28;20070;-73
2022/12/17 16:00:11;;;;;;;83.70;32.47;;;-0.30;99.90;;;;;;5097757;28;20093;-69
2022/12/17 16:02:37;;;;;;;75.50;31.05;;;-0.30;99.90;;;;;;5080101;28;20040;-70
2022/12/17 16:05:03;;;;;;;81.22;33.75;;;-0.30;99.90;;;;;;5097184;28;20407;-70
2022/12/17 16:07:29;;;;;;;77.70;33.17;;;-0.30;99.90;;;;;;5079750;28;20044;-70
2022/12/17 16:09:55;;;;;;;75.47;32.65;;;-0.20;99.90;;;;;;5096697;28;20039;-68
2022/12/17 16:12:21;;;;;;;74.72;33.38;;;-0.20;99.90;;;;;;5079850;28;20063;-71
2022/12/17 16:14:48;;;;;;;85.32;34.33;;;-0.10;99.90;;;;;;5097648;28;20055;-69
2022/12/17 16:17:13;;;;;;;73.10;30.60;;;-0.10;99.90;;;;;;5096673;28;20028;-70
2022/12/17 16:19:39;;;;;;;82.18;31.42;;;-0.20;99.90;;;;;;5097704;28;20024;-71
2022/12/17 16:22:05;;;;;;;75.68;31.27;;;-0.20;99.90;;;;;;5046622;28;20043;-70
2022/12/17 16:24:31;;;;;;;66.90;31.42;;;-0.30;99.90;;;;;;5097183;28;20032;-68
2022/12/17 16:26:57;;;;;;;72.10;30.60;;;-0.30;99.90;;;;;;5096218;28;20046;-67
2022/12/17 16:29:23;;;;;;;80.93;34.95;;;-0.40;99.90;;;;;;5096304;28;20105;-69
2022/12/17 16:31:49;;;;;;;66.10;29.55;;;-0.30;99.90;;;;;;5097199;28;20055;-69
2022/12/17 16:34:15;;;;;;;72.05;27.13;;;-0.20;99.90;;;;;;5079666;28;20085;-70
2022/12/17 16:36:41;;;;;;;60.92;27.13;;;-0.40;99.90;;;;;;5079550;28;20039;-70
2022/12/17 16:39:07;;;;;;;60.83;27.00;;;-0.70;99.90;;;;;;5096441;28;20028;-70
2022/12/17 16:41:33;;;;;;;62.50;26.77;;;-0.50;99.90;;;;;;5097118;28;20411;-70
2022/12/17 16:43:59;;;;;;;61.42;28.30;;;-0.80;99.90;;;;;;5097075;28;20078;-70
2022/12/17 16:46:35;;;;;;;61.72;28.05;;;-0.70;99.90;;;;;;5096294;28;20016;-69
2022/12/17 16:49:17;;;;;;;58.70;26.58;;;-0.60;99.90;;;;;;5096387;28;20189;-69
2022/12/17 16:51:44;;;;;;;61.03;27.48;;;-0.70;99.90;;;;;;5096093;28;20265;-69
2022/12/17 16:54:13;;;;;;;59.42;27.10;;;-0.80;99.90;;;;;;5096955;28;20356;-69
2022/12/17 16:56:40;;;;;;;64.50;26.58;;;-0.80;99.90;;;;;;5096307;28;20085;-70
2022/12/17 16:59:08;;;;;;;63.08;27.92;;;-0.70;99.90;;;;;;5096969;28;20039;-68
2022/12/17 17:01:35;;;;;;;63.47;27.23;;;-0.80;99.90;;;;;;5096154;28;20036;-69
2022/12/17 17:04:02;;;;;;;62.40;29.25;;;-0.80;99.90;;;;;;5096787;28;20485;-68
2022/12/17 17:06:27;;;;;;;67.07;29.38;;;-0.80;99.90;;;;;;5095850;28;20055;-69
2022/12/17 17:08:53;;;;;;;70.53;28.95;;;-0.80;99.90;;;;;;5096936;28;20031;-68
2022/12/17 17:11:22;;;;;;;70.00;29.08;;;-0.80;99.90;;;;;;5096005;28;20327;-68
2022/12/17 17:13:49;;;;;;;64.20;28.90;;;-0.90;99.90;;;;;;5096837;28;20024;-68
2022/12/17 17:16:16;;;;;;;69.60;28.35;;;-0.70;99.90;;;;;;5079268;28;20051;-69
2022/12/17 17:18:42;;;;;;;67.68;28.63;;;-0.70;99.90;;;;;;5096835;28;20047;-70
2022/12/17 17:21:28;;;;;;;70.93;29.13;;;-0.80;99.90;;;;;;5079677;28;20036;-68
2022/12/17 17:24:00;;;;;;;63.20;28.30;;;-0.70;99.90;;;;;;5096118;28;20043;-68
2022/12/17 17:26:28;;;;;;;70.40;28.25;;;-0.70;99.90;;;;;;5096229;28;20036;-67
2022/12/17 17:28:54;;;;;;;61.38;28.10;;;-0.70;99.90;;;;;;5096792;28;20085;-69
2022/12/17 17:31:20;;;;;;;57.78;26.50;;;-0.70;99.90;;;;;;5096384;28;20089;-69
2022/12/17 17:33:48;;;;;;;58.85;27.70;;;-0.70;99.90;;;;;;5096891;28;20028;-68
2022/12/17 17:36:15;;;;;;;58.60;27.45;;;-0.70;99.90;;;;;;5096299;28;20139;-70
2022/12/17 17:38:41;;;;;;;63.00;28.30;;;-1.00;99.90;;;;;;5096652;28;20023;-67
2022/12/17 17:41:10;;;;;;;71.95;29.70;;;-0.80;99.90;;;;;;5096735;28;20168;-66
2022/12/17 17:43:36;;;;;;;70.22;30.23;;;-0.80;99.90;;;;;;5096622;28;20074;-68
2022/12/17 17:46:14;;;;;;;71.30;30.55;;;-0.80;99.90;;;;;;5045901;28;20063;-68
2022/12/17 17:48:40;;;;;;;70.60;29.98;;;-0.80;99.90;;;;;;5095806;28;20105;-68
2022/12/17 17:51:18;;;;;;;72.53;31.73;;;-0.60;99.90;;;;;;5096393;28;20040;-67
2022/12/17 17:53:46;;;;;;;69.03;27.30;;;-0.50;99.90;;;;;;5096819;28;20039;-66
2022/12/17 17:56:14;;;;;;;63.72;26.50;;;-0.60;99.90;;;;;;5095967;28;20052;-68
2022/12/17 17:58:42;;;;;;;70.43;27.58;;;-0.60;99.90;;;;;;5099348;28;20050;-67
2022/12/17 18:01:11;;;;;;;63.67;27.77;;;-0.70;99.90;;;;;;5099925;28;20039;-68
2022/12/17 18:03:37;;;;;;;63.50;27.63;;;-0.80;99.90;;;;;;5099103;28;20121;-68
2022/12/17 18:06:06;;;;;;;63.10;28.58;;;-0.90;99.90;;;;;;5099852;28;20383;-68
2022/12/17 18:08:33;;;;;;;73.10;28.95;;;-0.90;99.90;;;;;;5099790;28;20039;-69
2022/12/17 18:11:01;;;;;;;97.60;28.95;;;-0.90;99.90;;;;;;5099705;28;20059;-67
2022/12/17 18:16:11;;;;;;;60.72;28.65;;;-1.00;99.90;;;;;;5101705;28;20036;-71
2022/12/17 18:18:37;;;;;;;75.45;28.58;;;-0.80;99.90;;;;;;5101794;28;20108;-70
2022/12/17 18:21:12;;;;;;;65.57;29.17;;;-0.90;99.90;;;;;;5100472;28;20055;-73
2022/12/17 18:23:40;;;;;;;69.30;27.83;;;-0.90;99.90;;;;;;5100933;28;20035;-72
2022/12/17 18:26:14;;;;;;;67.85;28.17;;;-0.90;99.90;;;;;;5084185;28;20059;-71
2022/12/17 18:28:42;;;;;;;56.92;25.80;;;-0.90;99.90;;;;;;5101282;28;20028;-70
2022/12/17 18:31:16;;;;;;;76.75;26.52;;;-1.00;99.90;;;;;;5100179;28;20040;-69
2022/12/17 18:33:45;;;;;;;76.55;27.08;;;-1.00;99.90;;;;;;5099600;28;20020;-69
2022/12/17 18:36:20;;;;;;;61.97;25.30;;;-1.10;99.90;;;;;;5098636;28;20028;-67
2022/12/17 18:38:46;;;;;;;66.85;24.48;;;-1.00;99.90;;;;;;5099299;28;20060;-68
2022/12/17 18:44:04;;;;;;;62.60;26.83;;;-1.00;99.90;;;;;;5099871;28;20035;-70
2022/12/17 18:46:32;;;;;;;65.00;24.02;;;-1.10;99.90;;;;;;5098907;28;20353;-67
2022/12/17 18:49:00;;;;;;;58.58;25.83;;;-1.10;99.90;;;;;;5098266;28;20051;-66
2022/12/17 18:51:26;;;;;;;67.13;24.48;;;-1.30;99.90;;;;;;5099042;28;20395;-68
2022/12/17 18:53:56;;;;;;;57.33;25.38;;;-1.20;99.90;;;;;;5081632;28;20035;-68
2022/12/17 18:56:22;;;;;;;62.80;25.00;;;-1.10;99.90;;;;;;5098153;28;20036;-68
2022/12/17 18:58:50;;;;;;;53.25;25.48;;;-1.10;99.90;;;;;;5098757;28;20013;-70
2022/12/17 19:01:26;;;;;;;59.38;25.52;;;-1.10;99.90;;;;;;5099095;28;20042;-68
2022/12/17 19:03:52;;;;;;;57.85;26.00;;;-1.00;99.90;;;;;;5098802;28;20086;-67
2022/12/17 19:06:19;;;;;;;58.10;25.13;;;-1.30;99.90;;;;;;5099078;28;20051;-68
2022/12/17 19:08:45;;;;;;;60.08;24.70;;;-1.30;99.90;;;;;;5097271;28;20288;-68
2022/12/17 19:11:16;;;;;;;60.65;25.70;;;-1.10;99.90;;;;;;5081259;28;20028;-69
2022/12/17 19:13:42;;;;;;;59.13;25.52;;;-1.20;99.90;;;;;;5099076;28;20020;-69
2022/12/17 19:16:12;;;;;;;58.85;24.80;;;-1.30;99.90;;;;;;5081868;28;20109;-75
2022/12/17 19:18:38;;;;;;;50.50;22.77;;;-1.20;99.90;;;;;;5098991;28;20276;-71
2022/12/17 19:21:06;;;;;;;56.45;24.45;;;-1.20;99.90;;;;;;5099617;28;20035;-69
2022/12/17 19:23:32;;;;;;;57.88;24.08;;;-1.20;99.90;;;;;;5098457;28;20384;-69
2022/12/17 19:26:10;;;;;;;55.92;23.83;;;-1.20;99.90;;;;;;5097617;28;20311;-68
2022/12/17 19:28:38;;;;;;;54.53;22.42;;;-1.30;99.90;;;;;;5097630;28;20055;-68
2022/12/17 19:31:04;;;;;;;50.08;22.13;;;-1.20;99.90;;;;;;5098178;28;20077;-68
2022/12/17 19:33:30;;;;;;;58.53;23.98;;;-1.50;99.90;;;;;;5098229;28;20096;-69
2022/12/17 19:36:19;;;;;;;72.97;28.10;;;-1.40;99.90;;;;;;5097367;28;20111;-68
2022/12/17 19:38:49;;;;;;;59.50;24.30;;;-1.30;99.90;;;;;;5096943;28;20349;-68
2022/12/17 19:41:16;;;;;;;62.08;25.45;;;-1.30;99.90;;;;;;5098446;28;20020;-68
2022/12/17 19:43:44;;;;;;;66.55;27.20;;;-1.30;99.90;;;;;;5098290;28;20283;-68
2022/12/17 19:46:14;;;;;;;56.47;24.48;;;-1.10;99.90;;;;;;5097228;28;20101;-69
2022/12/17 19:48:41;;;;;;;55.75;24.65;;;-1.20;99.90;;;;;;5097315;28;20392;-70
2022/12/17 19:51:09;;;;;;;60.53;24.55;;;-1.20;99.90;;;;;;5097112;28;20063;-71
2022/12/17 19:53:37;;;;;;;56.78;23.08;;;-1.30;99.90;;;;;;5097792;28;20093;-69
2022/12/17 19:56:19;;;;;;;56.90;22.50;;;-1.50;99.90;;;;;;5097802;28;20042;-69
2022/12/17 19:58:49;;;;;;;67.28;23.83;;;-1.50;99.90;;;;;;5097272;28;20353;-70
2022/12/17 20:01:27;;;;;;;63.63;23.90;;;-1.50;99.90;;;;;;5097827;28;20040;-73
2022/12/17 20:03:54;;;;;;;63.25;24.90;;;-1.40;99.90;;;;;;5082365;28;20039;-71
2022/12/17 20:06:22;;;;;;;51.33;22.63;;;-1.40;99.90;;;;;;5099108;28;20040;-69
2022/12/17 20:08:48;;;;;;;56.53;22.48;;;-1.60;99.90;;;;;;5097322;28;20359;-69
2022/12/17 20:11:33;;;;;;;53.55;22.83;;;-1.70;99.90;;;;;;5097428;28;20031;-69
2022/12/17 20:14:17;;;;;;;49.20;22.38;;;-1.60;99.90;;;;;;5079952;28;20081;-70
2022/12/17 20:16:45;;;;;;;50.53;22.60;;;-1.60;99.90;;;;;;5097266;28;20031;-69
2022/12/17 20:19:14;;;;;;;51.83;23.10;;;-1.50;99.90;;;;;;5080662;28;20051;-71
2022/12/17 20:21:40;;;;;;;57.85;23.23;;;-1.50;99.90;;;;;;5100293;28;20300;-70
2022/12/17 20:24:06;;;;;;;55.05;23.92;;;-1.40;99.90;;;;;;5101118;28;20038;-71
2022/12/17 20:26:32;;;;;;;57.20;23.48;;;-1.20;99.90;;;;;;5101448;28;20064;-69
2022/12/17 20:28:58;;;;;;;54.75;24.67;;;-1.30;99.90;;;;;;5083396;28;20105;-70
2022/12/17 20:31:27;;;;;;;61.33;23.92;;;-1.20;99.90;;;;;;5100169;28;20115;-70
2022/12/17 20:33:53;;;;;;;56.83;22.90;;;-1.30;99.90;;;;;;5096514;28;20399;-69
2022/12/17 20:36:21;;;;;;;53.90;22.48;;;-1.30;99.90;;;;;;5079598;28;20028;-70
2022/12/17 20:38:46;;;;;;;52.25;23.80;;;-1.20;99.90;;;;;;5097010;28;20051;-68
2022/12/17 20:41:16;;;;;;;51.17;21.55;;;-1.20;99.90;;;;;;5097101;28;20060;-68
2022/12/17 20:43:42;;;;;;;50.28;21.63;;;-1.20;99.90;;;;;;5097180;28;20039;-69
2022/12/17 20:46:08;;;;;;;57.53;23.45;;;-1.20;99.90;;;;;;5096905;28;20044;-70
2022/12/17 20:48:38;;;;;;;68.15;23.50;;;-1.20;99.90;;;;;;5096242;28;20047;-68
2022/12/17 20:51:06;;;;;;;52.90;22.80;;;-1.30;99.90;;;;;;5097111;28;20040;-70
2022/12/17 20:53:33;;;;;;;51.38;22.02;;;-1.20;99.90;;;;;;5096838;28;20291;-69
2022/12/17 20:56:08;;;;;;;50.45;22.23;;;-1.20;99.90;;;;;;5096138;28;20025;-69
2022/12/17 20:58:35;;;;;;;51.65;22.92;;;-1.30;99.90;;;;;;5096145;28;20081;-70
2022/12/17 21:01:03;;;;;;;56.28;23.23;;;-1.40;99.90;;;;;;5096853;28;20363;-70
2022/12/17 21:03:31;;;;;;;54.15;23.42;;;-1.40;99.90;;;;;;5096316;28;20036;-70
2022/12/17 21:06:14;;;;;;;63.97;24.75;;;-1.30;99.90;;;;;;5096817;28;20096;-69
2022/12/17 21:08:42;;;;;;;54.40;23.33;;;-1.20;99.90;;;;;;5096916;28;20285;-70
2022/12/17 21:11:08;;;;;;;57.65;24.42;;;-1.30;99.90;;;;;;5096129;28;20411;-70
2022/12/17 21:13:35;;;;;;;56.55;23.80;;;-1.40;99.90;;;;;;5079580;28;20384;-70
2022/12/17 21:16:03;;;;;;;63.35;26.05;;;-1.40;99.90;;;;;;5097255;28;20031;-70
2022/12/17 21:18:30;;;;;;;56.15;25.13;;;-1.40;99.90;;;;;;5096915;28;20020;-69
2022/12/17 21:20:59;;;;;;;63.28;27.33;;;-1.40;99.90;;;;;;5095982;28;20032;-70
2022/12/17 21:23:26;;;;;;;60.75;24.80;;;-1.30;99.90;;;;;;5096733;28;20048;-70
2022/12/17 21:26:01;;;;;;;61.17;26.27;;;-1.30;99.90;;;;;;5096560;28;20051;-69
2022/12/17 21:28:27;;;;;;;63.78;26.90;;;-1.20;99.90;;;;;;5096855;28;20047;-70
2022/12/17 21:30:53;;;;;;;60.60;26.27;;;-1.20;99.90;;;;;;5096585;28;20063;-70
2022/12/17 21:33:19;;;;;;;60.58;25.65;;;-1.10;99.90;;;;;;5100415;28;20419;-71
2022/12/17 21:35:45;;;;;;;59.25;25.27;;;-1.10;99.90;;;;;;5100827;28;20036;-70
2022/12/17 21:38:11;;;;;;;61.45;24.70;;;-1.20;99.90;;;;;;5101757;28;20020;-70
2022/12/17 21:40:37;;;;;;;61.40;25.27;;;-1.30;99.90;;;;;;5101864;28;20027;-70
2022/12/17 21:43:03;;;;;;;58.95;25.67;;;-1.50;99.90;;;;;;5102772;28;20044;-71
2022/12/17 21:45:41;;;;;;;63.88;25.60;;;-1.50;99.90;;;;;;5103782;28;20028;-71
2022/12/17 21:48:09;;;;;;;55.45;24.88;;;-1.50;99.90;;;;;;5084218;28;20076;-73
2022/12/17 21:50:43;;;;;;;56.83;24.63;;;-1.40;99.90;;;;;;5101068;28;20044;-71
2022/12/17 21:53:10;;;;;;;59.25;24.60;;;-1.30;99.90;;;;;;5100423;28;20043;-69
2022/12/17 21:55:37;;;;;;;57.72;24.50;;;-1.30;99.90;;;;;;5099415;28;20036;-71
2022/12/17 21:58:04;;;;;;;62.25;25.35;;;-1.40;99.90;;;;;;5100252;28;20023;-70
2022/12/17 22:00:30;;;;;;;60.00;24.85;;;-1.50;99.90;;;;;;5100255;28;20402;-72
2022/12/17 22:02:57;;;;;;;59.90;25.10;;;-1.70;99.90;;;;;;5102752;28;20028;-72
2022/12/17 22:05:22;;;;;;;58.38;25.45;;;-1.60;99.90;;;;;;5103139;28;20429;-73
2022/12/17 22:07:48;;;;;;;63.08;26.17;;;-1.50;99.90;;;;;;5102175;28;20048;-73
2022/12/17 22:10:14;;;;;;;67.40;27.33;;;-1.60;99.90;;;;;;5103144;28;20036;-71
2022/12/17 22:15:24;;;;;;;57.58;24.50;;;-1.70;99.90;;;;;;5101203;28;20425;-69
2022/12/17 22:17:52;;;;;;;64.13;25.50;;;-1.70;99.90;;;;;;5082757;28;20036;-70
2022/12/17 22:20:18;;;;;;;54.80;24.98;;;-1.70;99.90;;;;;;5100044;28;20035;-70
2022/12/17 22:22:44;;;;;;;60.60;25.23;;;-1.90;99.90;;;;;;5099138;28;20288;-70
2022/12/17 22:25:11;;;;;;;65.95;26.50;;;-1.70;99.90;;;;;;5082170;28;20062;-68
2022/12/17 22:27:38;;;;;;;65.22;26.60;;;-1.70;99.90;;;;;;5099605;28;20036;-69
2022/12/17 22:33:02;;;;;;;62.25;25.50;;;-1.90;99.90;;;;;;5101638;28;20343;-69
2022/12/17 22:35:36;;;;;;;57.83;24.70;;;-1.80;99.90;;;;;;5083706;28;20046;-69
2022/12/17 22:38:03;;;;;;;62.78;25.73;;;-1.90;99.90;;;;;;5099255;28;20024;-69
2022/12/17 22:40:32;;;;;;;64.07;25.50;;;-1.90;99.90;;;;;;5099331;28;20127;-71
2022/12/17 22:45:42;;;;;;;65.82;25.80;;;-1.80;99.90;;;;;;5099063;28;20060;-71
2022/12/17 22:48:09;;;;;;;59.47;24.98;;;-1.80;99.90;;;;;;5099404;28;20072;-71
2022/12/17 22:50:35;;;;;;;60.80;24.63;;;-1.80;99.90;;;;;;5098490;28;20036;-72
2022/12/17 22:53:01;;;;;;;68.90;25.92;;;-1.90;99.90;;;;;;5099627;28;20032;-72
2022/12/17 22:55:29;;;;;;;64.40;25.58;;;-1.80;99.90;;;;;;5100005;28;20024;-72
2022/12/17 22:57:55;;;;;;;61.78;26.35;;;-1.90;99.90;;;;;;5099219;28;20118;-71
2022/12/17 23:00:23;;;;;;;62.50;25.88;;;-1.90;99.90;;;;;;5098138;28;20032;-70
2022/12/17 23:02:53;;;;;;;71.50;27.20;;;-1.90;99.90;;;;;;5098033;28;20028;-71
2022/12/17 23:05:21;;;;;;;68.72;27.45;;;-2.00;99.90;;;;;;5098921;28;20028;-70
2022/12/17 23:07:47;;;;;;;68.15;26.92;;;-1.90;99.90;;;;;;5099865;28;20090;-71
2022/12/17 23:10:13;;;;;;;64.28;26.02;;;-2.00;99.90;;;;;;5099198;28;20127;-72
2022/12/17 23:12:53;;;;;;;64.93;27.40;;;-2.00;99.90;;;;;;5097877;28;20353;-70
2022/12/17 23:15:23;;;;;;;73.40;28.23;;;-2.00;99.90;;;;;;5097979;28;20094;-71
2022/12/17 23:17:50;;;;;;;72.47;27.73;;;-2.00;99.90;;;;;;5097691;28;20063;-71
2022/12/17 23:20:16;;;;;;;80.50;28.98;;;-2.10;99.90;;;;;;5097856;28;20025;-71
2022/12/17 23:22:42;;;;;;;73.63;28.75;;;-2.20;99.90;;;;;;5099004;28;20047;-70
2022/12/17 23:25:08;;;;;;;73.72;29.00;;;-2.20;99.90;;;;;;5098874;28;20054;-71
2022/12/17 23:27:34;;;;;;;73.05;29.02;;;-2.20;99.90;;;;;;5098220;28;20107;-70
2022/12/17 23:30:00;;;;;;;77.75;30.85;;;-2.20;99.90;;;;;;5098670;28;20058;-71
2022/12/17 23:32:26;;;;;;;77.80;30.58;;;-2.40;99.90;;;;;;5098364;28;20036;-71
2022/12/17 23:34:52;;;;;;;76.00;30.38;;;-2.40;99.90;;;;;;5080810;28;20296;-72
2022/12/17 23:37:18;;;;;;;75.22;30.05;;;-2.40;99.90;;;;;;5080675;28;20032;-71
2022/12/17 23:39:43;;;;;;;79.20;31.13;;;-2.40;99.90;;;;;;5097935;28;20338;-70
2022/12/17 23:42:09;;;;;;;73.75;30.70;;;-2.50;99.90;;;;;;5080788;28;20038;-70
2022/12/17 23:44:35;;;;;;;73.07;29.85;;;-2.50;99.90;;;;;;5099970;28;20127;-71
2022/12/17 23:47:00;;;;;;;80.88;31.45;;;-2.60;99.90;;;;;;5081288;28;20052;-70
2022/12/17 23:49:26;;;;;;;72.43;30.35;;;-2.80;99.90;;;;;;5081198;28;20306;-71
2022/12/17 23:51:52;;;;;;;74.18;29.27;;;-2.70;99.90;;;;;;5098010;28;20036;-71
2022/12/17 23:54:18;;;;;;;74.45;30.10;;;-2.60;99.90;;;;;;5097794;28;20265;-71
2022/12/17 23:56:44;;;;;;;78.70;30.80;;;-2.70;99.90;;;;;;5097397;28;20122;-70
2022/12/17 23:59:10;;;;;;;74.53;30.33;;;-2.70;99.90;;;;;;5098888;28;20059;-70
